sensor_id;sensor_type;location;lat;lon;timestamp;P1;durP1;ratioP1;P2;durP2;ratioP2
37905;SDS011;23739;51.448;6.674;2024-01-11T00:00:16;48.07;;;22.00;;
37905;SDS011;23739;51.448;6.674;2024-01-11T00:02:44;39.70;;;21.43;;
37905;SDS011;23739;51.448;6.674;2024-01-11T00:05:10;39.45;;;19.88;;
37905;SDS011;23739;51.448;6.674;2024-01-11T00:07:36;43.50;;;21.57;;
37905;SDS011;23739;51.448;6.674;2024-01-11T00:10:02;36.58;;;19.85;;
37905;SDS011;23739;51.448;6.674;2024-01-11T00:12:29;39.17;;;20.10;;
37905;SDS011;23739;51.448;6.674;2024-01-11T00:14:56;43.53;;;21.80;;
37905;SDS011;23739;51.448;6.674;2024-01-11T00:17:24;43.97;;;22.25;;
37905;SDS011;23739;51.448;6.674;2024-01-11T00:19:50;40.17;;;20.47;;
37905;SDS011;23739;51.448;6.674;2024-01-11T00:22:16;43.83;;;21.80;;
37905;SDS011;23739;51.448;6.674;2024-01-11T00:24:42;42.83;;;21.40;;
37905;SDS011;23739;51.448;6.674;2024-01-11T00:27:08;43.87;;;21.70;;
37905;SDS011;23739;51.448;6.674;2024-01-11T00:29:35;50.60;;;23.57;;
37905;SDS011;23739;51.448;6.674;2024-01-11T00:32:02;44.20;;;22.43;;
37905;SDS011;23739;51.448;6.674;2024-01-11T00:34:28;46.67;;;21.10;;
37905;SDS011;23739;51.448;6.674;2024-01-11T00:36:54;38.42;;;20.55;;
37905;SDS011;23739;51.448;6.674;2024-01-11T00:39:20;46.57;;;22.33;;
37905;SDS011;23739;51.448;6.674;2024-01-11T00:41:46;50.60;;;22.67;;
37905;SDS011;23739;51.448;6.674;2024-01-11T00:44:12;42.47;;;22.90;;
37905;SDS011;23739;51.448;6.674;2024-01-11T00:46:39;44.00;;;21.37;;
37905;SDS011;23739;51.448;6.674;2024-01-11T00:49:06;41.40;;;20.13;;
37905;SDS011;23739;51.448;6.674;2024-01-11T00:51:32;44.75;;;22.25;;
37905;SDS011;23739;51.448;6.674;2024-01-11T00:53:58;43.80;;;21.63;;
37905;SDS011;23739;51.448;6.674;2024-01-11T00:56:24;42.85;;;20.27;;
37905;SDS011;23739;51.448;6.674;2024-01-11T00:58:50;42.60;;;21.23;;
37905;SDS011;23739;51.448;6.674;2024-01-11T01:01:16;47.97;;;21.93;;
37905;SDS011;23739;51.448;6.674;2024-01-11T01:03:42;46.57;;;23.00;;
37905;SDS011;23739;51.448;6.674;2024-01-11T01:06:08;41.73;;;21.40;;
37905;SDS011;23739;51.448;6.674;2024-01-11T01:08:34;40.78;;;20.95;;
37905;SDS011;23739;51.448;6.674;2024-01-11T01:11:00;46.90;;;20.63;;
37905;SDS011;23739;51.448;6.674;2024-01-11T01:13:26;44.07;;;22.30;;
37905;SDS011;23739;51.448;6.674;2024-01-11T01:15:52;44.90;;;20.85;;
37905;SDS011;23739;51.448;6.674;2024-01-11T01:18:18;47.70;;;22.13;;
37905;SDS011;23739;51.448;6.674;2024-01-11T01:20:45;47.47;;;22.90;;
37905;SDS011;23739;51.448;6.674;2024-01-11T01:23:11;47.20;;;22.77;;
37905;SDS011;23739;51.448;6.674;2024-01-11T01:25:37;49.72;;;22.30;;
37905;SDS011;23739;51.448;6.674;2024-01-11T01:28:03;48.07;;;23.00;;
37905;SDS011;23739;51.448;6.674;2024-01-11T01:30:29;48.73;;;23.20;;
37905;SDS011;23739;51.448;6.674;2024-01-11T01:32:55;44.03;;;22.47;;
37905;SDS011;23739;51.448;6.674;2024-01-11T01:35:21;45.38;;;21.98;;
37905;SDS011;23739;51.448;6.674;2024-01-11T01:37:47;51.17;;;23.07;;
37905;SDS011;23739;51.448;6.674;2024-01-11T01:40:13;54.50;;;23.47;;
37905;SDS011;23739;51.448;6.674;2024-01-11T01:42:43;45.10;;;22.93;;
37905;SDS011;23739;51.448;6.674;2024-01-11T01:45:10;40.10;;;22.57;;
37905;SDS011;23739;51.448;6.674;2024-01-11T01:47:39;50.43;;;22.00;;
37905;SDS011;23739;51.448;6.674;2024-01-11T01:50:07;42.30;;;21.77;;
37905;SDS011;23739;51.448;6.674;2024-01-11T01:52:33;45.63;;;23.93;;
37905;SDS011;23739;51.448;6.674;2024-01-11T01:55:01;47.27;;;22.93;;
37905;SDS011;23739;51.448;6.674;2024-01-11T01:57:27;45.73;;;22.40;;
37905;SDS011;23739;51.448;6.674;2024-01-11T01:59:54;57.80;;;21.83;;
37905;SDS011;23739;51.448;6.674;2024-01-11T02:02:20;46.07;;;23.13;;
37905;SDS011;23739;51.448;6.674;2024-01-11T02:04:47;47.90;;;23.57;;
37905;SDS011;23739;51.448;6.674;2024-01-11T02:07:13;52.87;;;24.40;;
37905;SDS011;23739;51.448;6.674;2024-01-11T02:09:39;46.57;;;23.27;;
37905;SDS011;23739;51.448;6.674;2024-01-11T02:12:06;45.57;;;22.03;;
37905;SDS011;23739;51.448;6.674;2024-01-11T02:14:37;51.50;;;21.97;;
37905;SDS011;23739;51.448;6.674;2024-01-11T02:17:03;47.47;;;24.03;;
37905;SDS011;23739;51.448;6.674;2024-01-11T02:19:29;44.23;;;22.33;;
37905;SDS011;23739;51.448;6.674;2024-01-11T02:21:55;44.17;;;22.93;;
37905;SDS011;23739;51.448;6.674;2024-01-11T02:24:24;44.20;;;22.73;;
37905;SDS011;23739;51.448;6.674;2024-01-11T02:27:01;48.17;;;23.63;;
37905;SDS011;23739;51.448;6.674;2024-01-11T02:29:27;39.60;;;22.93;;
37905;SDS011;23739;51.448;6.674;2024-01-11T02:31:54;45.70;;;22.83;;
37905;SDS011;23739;51.448;6.674;2024-01-11T02:34:21;45.03;;;23.63;;
37905;SDS011;23739;51.448;6.674;2024-01-11T02:36:47;43.40;;;21.20;;
37905;SDS011;23739;51.448;6.674;2024-01-11T02:39:13;40.87;;;22.33;;
37905;SDS011;23739;51.448;6.674;2024-01-11T02:41:41;46.60;;;23.03;;
37905;SDS011;23739;51.448;6.674;2024-01-11T02:44:08;47.73;;;24.47;;
37905;SDS011;23739;51.448;6.674;2024-01-11T02:46:34;45.50;;;22.63;;
37905;SDS011;23739;51.448;6.674;2024-01-11T02:49:00;43.70;;;22.13;;
37905;SDS011;23739;51.448;6.674;2024-01-11T02:51:26;49.97;;;23.10;;
37905;SDS011;23739;51.448;6.674;2024-01-11T02:53:52;40.80;;;21.97;;
37905;SDS011;23739;51.448;6.674;2024-01-11T02:56:18;45.83;;;23.17;;
37905;SDS011;23739;51.448;6.674;2024-01-11T02:58:44;47.37;;;23.37;;
37905;SDS011;23739;51.448;6.674;2024-01-11T03:01:10;45.43;;;23.67;;
37905;SDS011;23739;51.448;6.674;2024-01-11T03:03:36;40.03;;;22.27;;
37905;SDS011;23739;51.448;6.674;2024-01-11T03:06:03;46.23;;;23.97;;
37905;SDS011;23739;51.448;6.674;2024-01-11T03:08:29;43.70;;;21.97;;
37905;SDS011;23739;51.448;6.674;2024-01-11T03:10:55;54.23;;;24.20;;
37905;SDS011;23739;51.448;6.674;2024-01-11T03:13:22;42.27;;;21.60;;
37905;SDS011;23739;51.448;6.674;2024-01-11T03:15:48;49.30;;;24.70;;
37905;SDS011;23739;51.448;6.674;2024-01-11T03:18:14;43.97;;;21.70;;
37905;SDS011;23739;51.448;6.674;2024-01-11T03:20:40;42.33;;;21.60;;
37905;SDS011;23739;51.448;6.674;2024-01-11T03:23:07;48.37;;;23.63;;
37905;SDS011;23739;51.448;6.674;2024-01-11T03:25:33;45.30;;;22.77;;
37905;SDS011;23739;51.448;6.674;2024-01-11T03:27:59;44.07;;;24.10;;
37905;SDS011;23739;51.448;6.674;2024-01-11T03:30:25;43.20;;;23.23;;
37905;SDS011;23739;51.448;6.674;2024-01-11T03:32:51;47.03;;;22.00;;
37905;SDS011;23739;51.448;6.674;2024-01-11T03:35:17;46.20;;;23.30;;
37905;SDS011;23739;51.448;6.674;2024-01-11T03:37:43;47.10;;;21.97;;
37905;SDS011;23739;51.448;6.674;2024-01-11T03:40:10;48.10;;;22.20;;
37905;SDS011;23739;51.448;6.674;2024-01-11T03:42:36;46.53;;;23.70;;
37905;SDS011;23739;51.448;6.674;2024-01-11T03:45:03;43.87;;;21.80;;
37905;SDS011;23739;51.448;6.674;2024-01-11T03:47:29;48.03;;;23.80;;
37905;SDS011;23739;51.448;6.674;2024-01-11T03:49:55;40.60;;;21.20;;
37905;SDS011;23739;51.448;6.674;2024-01-11T03:52:21;48.37;;;23.50;;
37905;SDS011;23739;51.448;6.674;2024-01-11T03:54:47;45.37;;;22.90;;
37905;SDS011;23739;51.448;6.674;2024-01-11T03:57:13;47.07;;;23.60;;
37905;SDS011;23739;51.448;6.674;2024-01-11T03:59:40;48.63;;;23.73;;
37905;SDS011;23739;51.448;6.674;2024-01-11T04:02:06;44.57;;;22.87;;
37905;SDS011;23739;51.448;6.674;2024-01-11T04:04:32;52.60;;;23.77;;
37905;SDS011;23739;51.448;6.674;2024-01-11T04:06:58;44.93;;;23.33;;
37905;SDS011;23739;51.448;6.674;2024-01-11T04:09:24;48.43;;;24.23;;
37905;SDS011;23739;51.448;6.674;2024-01-11T04:11:50;46.13;;;23.20;;
37905;SDS011;23739;51.448;6.674;2024-01-11T04:14:16;43.20;;;21.27;;
37905;SDS011;23739;51.448;6.674;2024-01-11T04:16:42;42.33;;;21.73;;
37905;SDS011;23739;51.448;6.674;2024-01-11T04:19:10;45.80;;;23.70;;
37905;SDS011;23739;51.448;6.674;2024-01-11T04:21:36;49.00;;;22.77;;
37905;SDS011;23739;51.448;6.674;2024-01-11T04:24:04;44.10;;;21.87;;
37905;SDS011;23739;51.448;6.674;2024-01-11T04:26:31;50.03;;;22.87;;
37905;SDS011;23739;51.448;6.674;2024-01-11T04:28:57;47.20;;;23.13;;
37905;SDS011;23739;51.448;6.674;2024-01-11T04:31:24;45.87;;;22.03;;
37905;SDS011;23739;51.448;6.674;2024-01-11T04:33:50;46.83;;;22.10;;
37905;SDS011;23739;51.448;6.674;2024-01-11T04:36:17;43.77;;;22.43;;
37905;SDS011;23739;51.448;6.674;2024-01-11T04:38:43;43.80;;;22.87;;
37905;SDS011;23739;51.448;6.674;2024-01-11T04:43:38;53.87;;;24.67;;
37905;SDS011;23739;51.448;6.674;2024-01-11T04:46:19;46.13;;;23.43;;
37905;SDS011;23739;51.448;6.674;2024-01-11T04:48:45;45.37;;;21.67;;
37905;SDS011;23739;51.448;6.674;2024-01-11T04:51:12;47.40;;;24.57;;
37905;SDS011;23739;51.448;6.674;2024-01-11T04:53:38;44.47;;;23.67;;
37905;SDS011;23739;51.448;6.674;2024-01-11T04:56:06;44.87;;;22.20;;
37905;SDS011;23739;51.448;6.674;2024-01-11T04:58:32;41.70;;;22.67;;
37905;SDS011;23739;51.448;6.674;2024-01-11T05:00:59;47.67;;;22.50;;
37905;SDS011;23739;51.448;6.674;2024-01-11T05:03:25;46.23;;;22.40;;
37905;SDS011;23739;51.448;6.674;2024-01-11T05:05:51;45.43;;;23.30;;
37905;SDS011;23739;51.448;6.674;2024-01-11T05:08:17;44.13;;;22.30;;
37905;SDS011;23739;51.448;6.674;2024-01-11T05:10:43;46.17;;;22.37;;
37905;SDS011;23739;51.448;6.674;2024-01-11T05:13:10;45.47;;;21.40;;
37905;SDS011;23739;51.448;6.674;2024-01-11T05:15:36;43.17;;;22.83;;
37905;SDS011;23739;51.448;6.674;2024-01-11T05:18:02;44.10;;;20.47;;
37905;SDS011;23739;51.448;6.674;2024-01-11T05:20:28;44.13;;;23.63;;
37905;SDS011;23739;51.448;6.674;2024-01-11T05:22:54;44.57;;;22.13;;
37905;SDS011;23739;51.448;6.674;2024-01-11T05:25:21;48.47;;;23.47;;
37905;SDS011;23739;51.448;6.674;2024-01-11T05:27:47;46.37;;;23.00;;
37905;SDS011;23739;51.448;6.674;2024-01-11T05:30:13;46.90;;;23.43;;
37905;SDS011;23739;51.448;6.674;2024-01-11T05:32:39;48.00;;;23.47;;
37905;SDS011;23739;51.448;6.674;2024-01-11T05:35:05;57.67;;;23.63;;
37905;SDS011;23739;51.448;6.674;2024-01-11T05:37:31;46.17;;;22.60;;
37905;SDS011;23739;51.448;6.674;2024-01-11T05:39:58;50.33;;;23.73;;
37905;SDS011;23739;51.448;6.674;2024-01-11T05:42:24;53.70;;;25.80;;
37905;SDS011;23739;51.448;6.674;2024-01-11T05:44:51;45.87;;;22.80;;
37905;SDS011;23739;51.448;6.674;2024-01-11T05:47:17;48.17;;;22.80;;
37905;SDS011;23739;51.448;6.674;2024-01-11T05:49:43;46.73;;;22.97;;
37905;SDS011;23739;51.448;6.674;2024-01-11T05:52:10;53.47;;;25.90;;
37905;SDS011;23739;51.448;6.674;2024-01-11T05:54:36;49.80;;;25.03;;
37905;SDS011;23739;51.448;6.674;2024-01-11T05:57:02;45.03;;;23.47;;
37905;SDS011;23739;51.448;6.674;2024-01-11T05:59:28;49.47;;;24.20;;
37905;SDS011;23739;51.448;6.674;2024-01-11T06:01:55;51.03;;;23.63;;
37905;SDS011;23739;51.448;6.674;2024-01-11T06:04:25;43.13;;;21.77;;
37905;SDS011;23739;51.448;6.674;2024-01-11T06:06:51;53.47;;;25.10;;
37905;SDS011;23739;51.448;6.674;2024-01-11T06:09:17;47.63;;;22.53;;
37905;SDS011;23739;51.448;6.674;2024-01-11T06:11:43;48.80;;;24.20;;
37905;SDS011;23739;51.448;6.674;2024-01-11T06:14:09;48.13;;;23.17;;
37905;SDS011;23739;51.448;6.674;2024-01-11T06:16:35;49.43;;;23.57;;
37905;SDS011;23739;51.448;6.674;2024-01-11T06:19:01;44.50;;;22.00;;
37905;SDS011;23739;51.448;6.674;2024-01-11T06:21:28;44.77;;;23.33;;
37905;SDS011;23739;51.448;6.674;2024-01-11T06:23:54;50.47;;;25.40;;
37905;SDS011;23739;51.448;6.674;2024-01-11T06:26:21;49.47;;;23.07;;
37905;SDS011;23739;51.448;6.674;2024-01-11T06:28:48;47.30;;;21.33;;
37905;SDS011;23739;51.448;6.674;2024-01-11T06:31:14;45.17;;;21.57;;
37905;SDS011;23739;51.448;6.674;2024-01-11T06:33:40;41.60;;;21.57;;
37905;SDS011;23739;51.448;6.674;2024-01-11T06:36:07;45.77;;;21.20;;
37905;SDS011;23739;51.448;6.674;2024-01-11T06:38:34;43.80;;;20.70;;
37905;SDS011;23739;51.448;6.674;2024-01-11T06:41:00;48.03;;;22.53;;
37905;SDS011;23739;51.448;6.674;2024-01-11T06:43:26;41.50;;;20.70;;
37905;SDS011;23739;51.448;6.674;2024-01-11T06:45:52;44.37;;;21.30;;
37905;SDS011;23739;51.448;6.674;2024-01-11T06:48:18;39.43;;;22.53;;
37905;SDS011;23739;51.448;6.674;2024-01-11T06:50:44;44.47;;;21.67;;
37905;SDS011;23739;51.448;6.674;2024-01-11T06:53:10;39.70;;;21.93;;
37905;SDS011;23739;51.448;6.674;2024-01-11T06:55:36;46.70;;;22.27;;
37905;SDS011;23739;51.448;6.674;2024-01-11T06:58:03;50.60;;;23.90;;
37905;SDS011;23739;51.448;6.674;2024-01-11T07:00:29;47.73;;;23.73;;
37905;SDS011;23739;51.448;6.674;2024-01-11T07:02:55;49.00;;;21.07;;
37905;SDS011;23739;51.448;6.674;2024-01-11T07:05:21;41.73;;;21.97;;
37905;SDS011;23739;51.448;6.674;2024-01-11T07:07:47;48.43;;;22.80;;
37905;SDS011;23739;51.448;6.674;2024-01-11T07:10:13;46.77;;;22.57;;
37905;SDS011;23739;51.448;6.674;2024-01-11T07:12:40;44.00;;;21.37;;
37905;SDS011;23739;51.448;6.674;2024-01-11T07:15:08;42.43;;;22.13;;
37905;SDS011;23739;51.448;6.674;2024-01-11T07:17:34;44.77;;;22.47;;
37905;SDS011;23739;51.448;6.674;2024-01-11T07:20:00;46.03;;;22.30;;
37905;SDS011;23739;51.448;6.674;2024-01-11T07:22:29;51.43;;;22.57;;
37905;SDS011;23739;51.448;6.674;2024-01-11T07:24:55;49.93;;;23.33;;
37905;SDS011;23739;51.448;6.674;2024-01-11T07:27:21;43.20;;;21.53;;
37905;SDS011;23739;51.448;6.674;2024-01-11T07:29:47;47.50;;;23.37;;
37905;SDS011;23739;51.448;6.674;2024-01-11T07:32:13;48.13;;;23.27;;
37905;SDS011;23739;51.448;6.674;2024-01-11T07:34:39;46.13;;;22.03;;
37905;SDS011;23739;51.448;6.674;2024-01-11T07:37:05;47.90;;;24.17;;
37905;SDS011;23739;51.448;6.674;2024-01-11T07:39:31;46.53;;;24.73;;
37905;SDS011;23739;51.448;6.674;2024-01-11T07:41:57;46.90;;;24.30;;
37905;SDS011;23739;51.448;6.674;2024-01-11T07:44:23;44.73;;;21.80;;
37905;SDS011;23739;51.448;6.674;2024-01-11T07:46:49;47.37;;;23.93;;
37905;SDS011;23739;51.448;6.674;2024-01-11T07:49:16;44.03;;;22.73;;
37905;SDS011;23739;51.448;6.674;2024-01-11T07:51:42;46.40;;;21.93;;
37905;SDS011;23739;51.448;6.674;2024-01-11T07:54:08;46.80;;;24.30;;
37905;SDS011;23739;51.448;6.674;2024-01-11T07:56:34;49.63;;;24.53;;
37905;SDS011;23739;51.448;6.674;2024-01-11T07:59:00;49.10;;;23.10;;
37905;SDS011;23739;51.448;6.674;2024-01-11T08:01:26;46.40;;;25.60;;
37905;SDS011;23739;51.448;6.674;2024-01-11T08:03:52;49.90;;;24.37;;
37905;SDS011;23739;51.448;6.674;2024-01-11T08:06:18;53.77;;;24.23;;
37905;SDS011;23739;51.448;6.674;2024-01-11T08:08:44;44.30;;;22.90;;
37905;SDS011;23739;51.448;6.674;2024-01-11T08:11:16;51.40;;;23.10;;
37905;SDS011;23739;51.448;6.674;2024-01-11T08:13:42;49.77;;;23.23;;
37905;SDS011;23739;51.448;6.674;2024-01-11T08:16:08;46.43;;;23.53;;
37905;SDS011;23739;51.448;6.674;2024-01-11T08:18:37;48.50;;;22.03;;
37905;SDS011;23739;51.448;6.674;2024-01-11T08:21:03;47.10;;;23.63;;
37905;SDS011;23739;51.448;6.674;2024-01-11T08:23:34;50.40;;;24.25;;
37905;SDS011;23739;51.448;6.674;2024-01-11T08:26:00;45.10;;;22.63;;
37905;SDS011;23739;51.448;6.674;2024-01-11T08:28:26;48.97;;;23.80;;
37905;SDS011;23739;51.448;6.674;2024-01-11T08:30:52;48.20;;;23.40;;
37905;SDS011;23739;51.448;6.674;2024-01-11T08:33:18;52.90;;;24.43;;
37905;SDS011;23739;51.448;6.674;2024-01-11T08:35:44;52.77;;;25.53;;
37905;SDS011;23739;51.448;6.674;2024-01-11T08:38:10;49.20;;;23.57;;
37905;SDS011;23739;51.448;6.674;2024-01-11T08:40:36;46.23;;;24.87;;
37905;SDS011;23739;51.448;6.674;2024-01-11T08:43:03;46.77;;;23.93;;
37905;SDS011;23739;51.448;6.674;2024-01-11T08:45:29;43.07;;;23.80;;
37905;SDS011;23739;51.448;6.674;2024-01-11T08:47:56;44.87;;;22.10;;
37905;SDS011;23739;51.448;6.674;2024-01-11T08:50:22;47.23;;;22.63;;
37905;SDS011;23739;51.448;6.674;2024-01-11T08:52:49;50.10;;;23.13;;
37905;SDS011;23739;51.448;6.674;2024-01-11T08:55:15;47.43;;;22.47;;
37905;SDS011;23739;51.448;6.674;2024-01-11T08:57:41;50.17;;;25.03;;
37905;SDS011;23739;51.448;6.674;2024-01-11T09:00:07;43.13;;;22.50;;
37905;SDS011;23739;51.448;6.674;2024-01-11T09:02:33;42.57;;;22.97;;
37905;SDS011;23739;51.448;6.674;2024-01-11T09:05:00;48.87;;;24.03;;
37905;SDS011;23739;51.448;6.674;2024-01-11T09:07:27;45.53;;;25.43;;
37905;SDS011;23739;51.448;6.674;2024-01-11T09:09:53;46.07;;;23.70;;
37905;SDS011;23739;51.448;6.674;2024-01-11T09:12:19;47.90;;;23.97;;
37905;SDS011;23739;51.448;6.674;2024-01-11T09:14:46;45.70;;;24.37;;
37905;SDS011;23739;51.448;6.674;2024-01-11T09:17:12;48.43;;;25.33;;
37905;SDS011;23739;51.448;6.674;2024-01-11T09:19:39;47.20;;;25.50;;
37905;SDS011;23739;51.448;6.674;2024-01-11T09:22:05;42.87;;;22.67;;
37905;SDS011;23739;51.448;6.674;2024-01-11T09:24:31;50.33;;;23.97;;
37905;SDS011;23739;51.448;6.674;2024-01-11T09:26:57;49.73;;;25.13;;
37905;SDS011;23739;51.448;6.674;2024-01-11T09:29:23;42.67;;;23.47;;
37905;SDS011;23739;51.448;6.674;2024-01-11T09:31:49;50.63;;;25.93;;
37905;SDS011;23739;51.448;6.674;2024-01-11T09:34:15;53.97;;;25.73;;
37905;SDS011;23739;51.448;6.674;2024-01-11T09:36:42;47.92;;;24.15;;
37905;SDS011;23739;51.448;6.674;2024-01-11T09:39:08;50.03;;;25.85;;
37905;SDS011;23739;51.448;6.674;2024-01-11T09:41:36;48.58;;;24.02;;
37905;SDS011;23739;51.448;6.674;2024-01-11T09:44:02;44.67;;;24.00;;
37905;SDS011;23739;51.448;6.674;2024-01-11T09:46:31;49.53;;;24.83;;
37905;SDS011;23739;51.448;6.674;2024-01-11T09:48:57;50.57;;;26.33;;
37905;SDS011;23739;51.448;6.674;2024-01-11T09:51:24;50.23;;;24.30;;
37905;SDS011;23739;51.448;6.674;2024-01-11T09:53:51;54.70;;;25.70;;
37905;SDS011;23739;51.448;6.674;2024-01-11T09:56:20;49.57;;;24.50;;
37905;SDS011;23739;51.448;6.674;2024-01-11T09:58:46;49.83;;;26.73;;
37905;SDS011;23739;51.448;6.674;2024-01-11T10:01:13;52.85;;;24.80;;
37905;SDS011;23739;51.448;6.674;2024-01-11T10:03:40;42.43;;;24.40;;
37905;SDS011;23739;51.448;6.674;2024-01-11T10:06:09;43.47;;;24.23;;
37905;SDS011;23739;51.448;6.674;2024-01-11T10:08:35;45.75;;;25.08;;
37905;SDS011;23739;51.448;6.674;2024-01-11T10:11:04;47.10;;;26.02;;
37905;SDS011;23739;51.448;6.674;2024-01-11T10:13:31;46.40;;;24.42;;
37905;SDS011;23739;51.448;6.674;2024-01-11T10:16:10;48.33;;;25.13;;
37905;SDS011;23739;51.448;6.674;2024-01-11T10:18:40;48.05;;;24.80;;
37905;SDS011;23739;51.448;6.674;2024-01-11T10:21:07;49.88;;;24.63;;
37905;SDS011;23739;51.448;6.674;2024-01-11T10:23:34;54.40;;;26.00;;
37905;SDS011;23739;51.448;6.674;2024-01-11T10:26:00;44.63;;;24.13;;
37905;SDS011;23739;51.448;6.674;2024-01-11T10:28:27;45.53;;;26.67;;
37905;SDS011;23739;51.448;6.674;2024-01-11T10:30:53;46.47;;;25.45;;
37905;SDS011;23739;51.448;6.674;2024-01-11T10:33:20;46.95;;;24.88;;
37905;SDS011;23739;51.448;6.674;2024-01-11T10:35:47;52.10;;;26.98;;
37905;SDS011;23739;51.448;6.674;2024-01-11T10:38:16;45.63;;;24.60;;
37905;SDS011;23739;51.448;6.674;2024-01-11T10:40:43;44.10;;;23.67;;
37905;SDS011;23739;51.448;6.674;2024-01-11T10:43:10;48.40;;;23.13;;
37905;SDS011;23739;51.448;6.674;2024-01-11T10:45:36;40.22;;;22.25;;
37905;SDS011;23739;51.448;6.674;2024-01-11T10:48:15;45.55;;;23.17;;
37905;SDS011;23739;51.448;6.674;2024-01-11T10:50:45;42.58;;;21.77;;
37905;SDS011;23739;51.448;6.674;2024-01-11T10:55:43;42.25;;;21.58;;
37905;SDS011;23739;51.448;6.674;2024-01-11T10:58:10;39.88;;;20.92;;
37905;SDS011;23739;51.448;6.674;2024-01-11T11:00:37;39.70;;;21.20;;
37905;SDS011;23739;51.448;6.674;2024-01-11T11:03:05;37.10;;;22.33;;
37905;SDS011;23739;51.448;6.674;2024-01-11T11:05:34;36.63;;;20.48;;
37905;SDS011;23739;51.448;6.674;2024-01-11T11:08:01;36.90;;;21.10;;
37905;SDS011;23739;51.448;6.674;2024-01-11T11:10:27;42.05;;;22.55;;
37905;SDS011;23739;51.448;6.674;2024-01-11T11:12:55;41.25;;;23.33;;
37905;SDS011;23739;51.448;6.674;2024-01-11T11:15:26;40.15;;;22.25;;
37905;SDS011;23739;51.448;6.674;2024-01-11T11:17:53;39.83;;;22.45;;
37905;SDS011;23739;51.448;6.674;2024-01-11T11:20:19;43.97;;;23.10;;
37905;SDS011;23739;51.448;6.674;2024-01-11T11:22:48;44.60;;;23.45;;
37905;SDS011;23739;51.448;6.674;2024-01-11T11:25:24;39.67;;;20.75;;
37905;SDS011;23739;51.448;6.674;2024-01-11T11:27:50;41.30;;;20.52;;
37905;SDS011;23739;51.448;6.674;2024-01-11T11:30:19;40.25;;;23.70;;
37905;SDS011;23739;51.448;6.674;2024-01-11T11:32:45;43.20;;;21.20;;
37905;SDS011;23739;51.448;6.674;2024-01-11T11:35:12;38.17;;;22.10;;
37905;SDS011;23739;51.448;6.674;2024-01-11T11:37:38;40.70;;;22.30;;
37905;SDS011;23739;51.448;6.674;2024-01-11T11:40:06;39.00;;;21.52;;
37905;SDS011;23739;51.448;6.674;2024-01-11T11:42:34;41.88;;;20.63;;
37905;SDS011;23739;51.448;6.674;2024-01-11T11:45:00;41.70;;;21.98;;
37905;SDS011;23739;51.448;6.674;2024-01-11T11:47:33;38.10;;;19.83;;
37905;SDS011;23739;51.448;6.674;2024-01-11T11:50:03;40.30;;;22.25;;
37905;SDS011;23739;51.448;6.674;2024-01-11T11:52:32;40.05;;;20.48;;
37905;SDS011;23739;51.448;6.674;2024-01-11T11:54:59;39.90;;;20.90;;
37905;SDS011;23739;51.448;6.674;2024-01-11T11:57:26;39.78;;;21.00;;
37905;SDS011;23739;51.448;6.674;2024-01-11T11:59:58;35.10;;;19.45;;
37905;SDS011;23739;51.448;6.674;2024-01-11T12:02:25;38.65;;;20.15;;
37905;SDS011;23739;51.448;6.674;2024-01-11T12:04:51;33.67;;;19.02;;
37905;SDS011;23739;51.448;6.674;2024-01-11T12:07:17;35.35;;;19.55;;
37905;SDS011;23739;51.448;6.674;2024-01-11T12:09:43;36.35;;;19.90;;
37905;SDS011;23739;51.448;6.674;2024-01-11T12:12:09;40.35;;;19.20;;
37905;SDS011;23739;51.448;6.674;2024-01-11T12:14:36;39.80;;;19.00;;
37905;SDS011;23739;51.448;6.674;2024-01-11T12:17:02;38.55;;;20.27;;
37905;SDS011;23739;51.448;6.674;2024-01-11T12:19:28;37.20;;;20.00;;
37905;SDS011;23739;51.448;6.674;2024-01-11T12:21:54;35.03;;;19.00;;
37905;SDS011;23739;51.448;6.674;2024-01-11T12:24:20;31.50;;;17.45;;
37905;SDS011;23739;51.448;6.674;2024-01-11T12:26:50;34.17;;;18.27;;
37905;SDS011;23739;51.448;6.674;2024-01-11T12:29:19;29.70;;;17.65;;
37905;SDS011;23739;51.448;6.674;2024-01-11T12:31:45;41.75;;;17.85;;
37905;SDS011;23739;51.448;6.674;2024-01-11T12:34:11;31.60;;;18.48;;
37905;SDS011;23739;51.448;6.674;2024-01-11T12:36:38;33.38;;;19.05;;
37905;SDS011;23739;51.448;6.674;2024-01-11T12:39:04;31.65;;;17.95;;
37905;SDS011;23739;51.448;6.674;2024-01-11T12:41:31;34.80;;;18.15;;
37905;SDS011;23739;51.448;6.674;2024-01-11T12:43:57;31.80;;;18.35;;
37905;SDS011;23739;51.448;6.674;2024-01-11T12:46:24;31.05;;;16.20;;
37905;SDS011;23739;51.448;6.674;2024-01-11T12:48:50;28.38;;;16.95;;
37905;SDS011;23739;51.448;6.674;2024-01-11T12:51:16;27.80;;;15.77;;
37905;SDS011;23739;51.448;6.674;2024-01-11T12:53:46;24.20;;;14.63;;
37905;SDS011;23739;51.448;6.674;2024-01-11T12:56:14;29.33;;;15.20;;
37905;SDS011;23739;51.448;6.674;2024-01-11T12:58:41;25.05;;;14.82;;
37905;SDS011;23739;51.448;6.674;2024-01-11T13:01:07;24.48;;;14.25;;
37905;SDS011;23739;51.448;6.674;2024-01-11T13:03:33;24.52;;;14.20;;
37905;SDS011;23739;51.448;6.674;2024-01-11T13:06:03;26.63;;;15.40;;
37905;SDS011;23739;51.448;6.674;2024-01-11T13:08:30;28.23;;;14.85;;
37905;SDS011;23739;51.448;6.674;2024-01-11T13:10:56;23.17;;;14.00;;
37905;SDS011;23739;51.448;6.674;2024-01-11T13:13:22;28.95;;;15.38;;
37905;SDS011;23739;51.448;6.674;2024-01-11T13:15:50;27.02;;;14.85;;
37905;SDS011;23739;51.448;6.674;2024-01-11T13:18:16;26.83;;;15.10;;
37905;SDS011;23739;51.448;6.674;2024-01-11T13:20:42;25.83;;;14.35;;
37905;SDS011;23739;51.448;6.674;2024-01-11T13:23:12;29.17;;;15.60;;
37905;SDS011;23739;51.448;6.674;2024-01-11T13:25:43;25.60;;;14.60;;
37905;SDS011;23739;51.448;6.674;2024-01-11T13:28:09;24.67;;;15.07;;
37905;SDS011;23739;51.448;6.674;2024-01-11T13:30:39;27.90;;;15.15;;
37905;SDS011;23739;51.448;6.674;2024-01-11T13:33:06;28.17;;;15.15;;
37905;SDS011;23739;51.448;6.674;2024-01-11T13:35:39;29.48;;;15.63;;
37905;SDS011;23739;51.448;6.674;2024-01-11T13:38:09;24.08;;;14.40;;
37905;SDS011;23739;51.448;6.674;2024-01-11T13:40:35;26.98;;;14.50;;
37905;SDS011;23739;51.448;6.674;2024-01-11T13:43:01;27.77;;;14.35;;
37905;SDS011;23739;51.448;6.674;2024-01-11T13:45:28;26.25;;;14.23;;
37905;SDS011;23739;51.448;6.674;2024-01-11T13:47:58;26.60;;;14.75;;
37905;SDS011;23739;51.448;6.674;2024-01-11T13:50:24;27.95;;;14.90;;
37905;SDS011;23739;51.448;6.674;2024-01-11T13:52:50;25.67;;;12.77;;
37905;SDS011;23739;51.448;6.674;2024-01-11T13:55:16;24.58;;;13.20;;
37905;SDS011;23739;51.448;6.674;2024-01-11T13:57:43;25.40;;;13.10;;
37905;SDS011;23739;51.448;6.674;2024-01-11T14:00:10;23.88;;;13.40;;
37905;SDS011;23739;51.448;6.674;2024-01-11T14:02:36;25.35;;;14.90;;
37905;SDS011;23739;51.448;6.674;2024-01-11T14:05:03;33.55;;;14.43;;
37905;SDS011;23739;51.448;6.674;2024-01-11T14:07:31;24.92;;;14.13;;
37905;SDS011;23739;51.448;6.674;2024-01-11T14:09:57;23.20;;;13.05;;
37905;SDS011;23739;51.448;6.674;2024-01-11T14:12:23;21.15;;;13.48;;
37905;SDS011;23739;51.448;6.674;2024-01-11T14:14:49;23.52;;;13.95;;
37905;SDS011;23739;51.448;6.674;2024-01-11T14:17:15;27.85;;;15.25;;
37905;SDS011;23739;51.448;6.674;2024-01-11T14:19:41;26.42;;;13.80;;
37905;SDS011;23739;51.448;6.674;2024-01-11T14:22:07;23.88;;;13.88;;